Time;durP1;ratioP1;P1;durP2;ratioP2;P2;SDS_P1;SDS_P2;PMS_P1;PMS_P2;Temp;Humidity;BMP_temperature;BMP_pressure;BME280_temperature;BME280_humidity;BME280_pressure;Samples;Min_cycle;Max_cycle;Signal;HPM_P1;HPM_P2
2022/09/06 00:00:21;;;;;;;13.57;4.38;;;;;;;20.59;99.31;100892.72;7382863;19;20021;-65
2022/09/06 00:02:48;;;;;;;10.02;4.95;;;;;;;20.59;99.28;100890.06;7385103;19;20018;-65
2022/09/06 00:05:15;;;;;;;8.23;4.50;;;;;;;20.58;98.66;100889.25;7383258;19;20017;-65
2022/09/06 00:07:42;;;;;;;19.63;9.70;;;;;;;20.57;98.97;100884.13;7383244;19;20387;-65
2022/09/06 00:10:10;;;;;;;10.90;6.45;;;;;;;20.55;99.42;100886.19;7384652;19;20158;-65
2022/09/06 00:12:37;;;;;;;7.85;5.22;;;;;;;20.54;99.54;100877.34;7383984;19;20014;-65
2022/09/06 00:15:05;;;;;;;7.93;4.93;;;;;;;20.54;99.39;100880.03;7382719;19;20031;-65
2022/09/06 00:17:32;;;;;;;13.93;6.22;;;;;;;20.52;98.74;100887.44;7384726;19;20066;-65
2022/09/06 00:20:03;;;;;;;18.05;7.78;;;;;;;20.52;98.99;100884.75;7384249;19;20538;-65
2022/09/06 00:22:33;;;;;;;10.93;5.90;;;;;;;20.53;98.88;100889.06;7383423;19;20010;-65
2022/09/06 00:24:59;;;;;;;8.10;4.93;;;;;;;20.52;98.42;100886.63;7384224;19;20509;-65
2022/09/06 00:27:27;;;;;;;12.15;5.55;;;;;;;20.51;98.46;100885.00;7384047;19;20542;-65
2022/09/06 00:29:54;;;;;;;9.65;5.00;;;;;;;20.51;98.45;100879.66;7382212;19;20022;-65
2022/09/06 00:32:21;;;;;;;8.70;4.90;;;;;;;20.49;98.62;100869.97;7384786;19;20030;-65
2022/09/06 00:34:47;;;;;;;9.57;4.95;;;;;;;20.49;97.92;100874.50;7382665;19;20118;-65
2022/09/06 00:37:14;;;;;;;11.20;4.75;;;;;;;20.49;98.08;100887.88;7378575;19;20013;-65
2022/09/06 00:39:45;;;;;;;8.85;4.20;;;;;;;20.46;98.34;100885.66;7381359;19;20025;-64
2022/09/06 00:42:12;;;;;;;8.85;4.47;;;;;;;20.45;98.30;100894.69;7382646;19;20022;-65
2022/09/06 00:44:39;;;;;;;12.50;5.72;;;;;;;20.44;98.42;100891.19;7385012;19;20017;-65
2022/09/06 00:47:07;;;;;;;8.43;4.57;;;;;;;20.43;98.60;100897.56;7396229;19;20018;-65
2022/09/06 00:49:47;;;;;;;8.82;3.53;;;;;;;20.41;99.04;100894.31;7398082;19;20010;-64
2022/09/06 00:52:26;;;;;;;6.28;3.13;;;;;;;20.40;98.87;100892.66;7394806;19;20616;-65
2022/09/06 00:54:54;;;;;;;6.80;2.60;;;;;;;20.35;98.55;100894.34;7337651;19;20493;-65
2022/09/06 00:57:31;;;;;;;5.30;2.80;;;;;;;20.32;98.37;100894.75;7384481;19;20015;-64
2022/09/06 00:59:59;;;;;;;8.52;2.83;;;;;;;20.30;97.55;100883.44;7393492;19;20364;-65
2022/09/06 01:02:26;;;;;;;6.63;2.38;;;;;;;20.27;97.30;100882.00;7395173;19;20455;-64
2022/09/06 01:04:54;;;;;;;4.07;2.45;;;;;;;20.23;96.93;100883.47;7394930;19;20407;-63
2022/09/06 01:07:38;;;;;;;4.78;2.17;;;;;;;20.19;96.98;100887.63;7393046;19;20087;-64
2022/09/06 01:10:11;;;;;;;6.93;2.00;;;;;;;20.19;97.47;100884.13;7394899;19;20014;-64
2022/09/06 01:12:59;;;;;;;15.35;10.13;;;;;;;20.19;97.58;100882.28;7395052;19;20026;-65
2022/09/06 01:15:52;;;;;;;6.25;2.90;;;;;;;20.21;97.44;100884.75;7390839;19;20077;-65
2022/09/06 01:19:03;;;;;;;6.68;2.63;;;;;;;20.21;97.30;100879.41;7392695;19;20010;-64
2022/09/06 01:21:54;;;;;;;6.25;2.00;;;;;;;20.20;97.50;100880.41;7386597;19;20047;-63
2022/09/06 01:24:55;;;;;;;4.32;2.03;;;;;;;20.16;97.51;100874.69;7389971;19;20014;-64
2022/09/06 01:27:41;;;;;;;4.53;1.60;;;;;;;20.14;97.67;100873.25;7390794;19;20029;-65
2022/09/06 01:30:11;;;;;;;5.70;2.50;;;;;;;20.14;97.85;100866.06;7394372;19;20490;-66
2022/09/06 01:33:08;;;;;;;2.97;1.55;;;;;;;20.14;98.04;100860.72;7395088;19;20435;-65
2022/09/06 01:35:49;;;;;;;3.47;1.52;;;;;;;20.11;97.38;100871.84;7393102;19;20027;-64
2022/09/06 01:38:16;;;;;;;5.30;1.35;;;;;;;20.09;96.97;100868.56;7396173;19;20015;-64
2022/09/06 01:40:44;;;;;;;4.10;1.38;;;;;;;20.05;96.78;100873.53;7393383;19;20021;-65
2022/09/06 01:43:22;;;;;;;8.60;3.25;;;;;;;20.06;97.19;100863.66;7397083;19;20025;-65
2022/09/06 01:46:25;;;;;;;6.75;1.67;;;;;;;20.06;96.95;100864.44;7395512;19;20027;-64
2022/09/06 01:49:29;;;;;;;4.47;1.50;;;;;;;20.04;96.92;100865.72;7396659;19;20017;-65
2022/09/06 01:52:10;;;;;;;;;;;;;;;20.01;96.67;100861.59;7393675;19;20015;-67
2022/09/06 01:55:18;;;;;;;3.30;1.73;;;;;;;19.96;96.30;100853.41;7395499;19;19986;-65
2022/09/06 01:58:04;;;;;;;4.50;1.30;;;;;;;19.96;96.83;100861.41;7389488;19;20030;-64
2022/09/06 02:00:38;;;;;;;3.95;1.77;;;;;;;19.92;96.78;100860.22;7387614;19;20142;-64
2022/09/06 02:03:12;;;;;;;5.60;1.77;;;;;;;19.92;97.57;100854.03;7388029;19;20510;-65
2022/09/06 02:05:53;;;;;;;5.93;2.20;;;;;;;19.91;98.07;100849.75;7387983;19;20015;-65
2022/09/06 02:08:43;;;;;;;3.08;1.50;;;;;;;19.91;98.26;100852.44;7388314;19;20011;-64
2022/09/06 02:11:13;;;;;;;4.60;1.50;;;;;;;19.90;98.19;100848.13;7386552;19;20019;-65
2022/09/06 02:13:46;;;;;;;15.27;3.78;;;;;;;19.89;98.21;100844.63;7387476;19;20057;-65
2022/09/06 02:16:23;;;;;;;5.22;2.10;;;;;;;19.92;98.05;100854.03;7385058;19;20529;-65
2022/09/06 02:19:07;;;;;;;6.15;2.35;;;;;;;19.93;98.34;100845.00;7388833;19;20017;-65
2022/09/06 02:21:39;;;;;;;4.55;1.83;;;;;;;19.90;98.17;100848.94;7385147;19;20011;-65
2022/09/06 02:24:13;;;;;;;5.43;2.13;;;;;;;19.88;98.10;100837.63;7387170;19;20498;-66
2022/09/06 02:26:42;;;;;;;4.03;1.85;;;;;;;19.84;97.70;100839.09;7384909;19;20029;-66
2022/09/06 02:29:09;;;;;;;4.65;1.88;;;;;;;19.83;97.24;100842.78;7386464;19;20020;-66
2022/09/06 02:32:20;;;;;;;4.68;3.00;;;;;;;19.82;97.60;100838.47;7386789;19;20459;-65
2022/09/06 02:34:56;;;;;;;6.85;2.72;;;;;;;19.80;97.93;100843.22;7385691;19;20010;-66
2022/09/06 02:37:27;;;;;;;5.88;2.63;;;;;;;19.79;97.97;100849.59;7383604;19;20518;-66
2022/09/06 02:40:02;;;;;;;5.45;2.70;;;;;;;19.77;97.96;100835.63;7387242;19;20105;-65
2022/09/06 02:42:29;;;;;;;6.00;2.50;;;;;;;19.76;97.72;100833.19;7387350;19;20010;-65
2022/09/06 02:45:06;;;;;;;7.88;2.78;;;;;;;19.75;97.74;100831.56;7385171;19;20044;-64
2022/09/06 02:47:33;;;;;;;12.77;7.18;;;;;;;19.75;98.19;100826.22;7387409;19;20006;-64
2022/09/06 02:50:00;;;;;;;6.93;2.83;;;;;;;19.76;98.06;100817.16;7386942;19;20530;-65
2022/09/06 02:52:27;;;;;;;5.28;3.17;;;;;;;19.75;98.38;100813.69;7386134;19;20479;-65
2022/09/06 02:54:54;;;;;;;6.45;2.80;;;;;;;19.75;97.99;100810.19;7384170;19;20010;-67
2022/09/06 02:57:21;;;;;;;7.65;3.13;;;;;;;19.74;98.37;100809.38;7386266;19;20014;-64
2022/09/06 02:59:51;;;;;;;8.05;3.53;;;;;;;19.74;98.38;100801.34;7386681;19;20041;-64
2022/09/06 03:02:34;;;;;;;5.57;2.53;;;;;;;19.76;98.36;100804.59;7387104;19;20090;-65
2022/09/06 03:05:01;;;;;;;12.25;4.13;;;;;;;19.78;98.17;100809.75;7383418;19;20442;-65
2022/09/06 03:07:28;;;;;;;9.07;4.00;;;;;;;19.79;98.04;100804.19;7384641;19;20015;-66
2022/09/06 03:09:55;;;;;;;7.05;3.60;;;;;;;19.79;97.72;100806.06;7382738;19;20022;-66
2022/09/06 03:12:22;;;;;;;8.13;3.22;;;;;;;19.77;97.40;100792.91;7386787;19;20594;-66
2022/09/06 03:14:49;;;;;;;9.52;3.67;;;;;;;19.75;96.77;100792.31;7381148;19;20017;-65
2022/09/06 03:17:20;;;;;;;9.68;4.43;;;;;;;19.73;97.31;100791.69;7386908;19;20416;-65
2022/09/06 03:19:52;;;;;;;13.25;3.72;;;;;;;19.73;97.81;100794.38;7386097;19;20010;-65
2022/09/06 03:22:22;;;;;;;13.50;6.28;;;;;;;19.75;98.41;100797.66;7383662;19;20022;-65
2022/09/06 03:24:49;;;;;;;7.78;3.50;;;;;;;19.74;98.60;100795.19;7385545;19;20022;-64
2022/09/06 03:27:16;;;;;;;8.52;3.85;;;;;;;19.71;97.79;100791.06;7386222;19;20015;-65
2022/09/06 03:29:42;;;;;;;9.50;3.63;;;;;;;19.69;97.48;100789.66;7385948;19;20011;-64
2022/09/06 03:32:09;;;;;;;10.82;3.88;;;;;;;19.66;97.28;100787.44;7385409;19;20511;-65
2022/09/06 03:34:36;;;;;;;9.90;4.15;;;;;;;19.61;97.59;100778.19;7379659;19;20122;-65
2022/09/06 03:37:03;;;;;;;7.03;3.47;;;;;;;19.60;97.59;100771.25;7383335;19;20415;-65
2022/09/06 03:39:30;;;;;;;7.93;4.30;;;;;;;19.61;97.83;100756.84;7385996;19;20014;-65
2022/09/06 03:41:57;;;;;;;10.85;4.18;;;;;;;19.62;97.99;100765.66;7386196;19;20021;-65
2022/09/06 03:44:23;;;;;;;6.35;3.30;;;;;;;19.63;97.89;100761.97;7385940;19;20010;-65
2022/09/06 03:46:51;;;;;;;12.13;3.67;;;;;;;19.60;97.23;100759.75;7385010;19;20014;-65
2022/09/06 03:49:23;;;;;;;8.13;3.53;;;;;;;19.59;96.78;100768.78;7385073;19;20010;-66
2022/09/06 03:51:51;;;;;;;9.50;3.80;;;;;;;19.59;97.69;100769.59;7383403;19;20024;-65
2022/09/06 03:54:18;;;;;;;6.20;3.70;;;;;;;19.59;97.25;100772.25;7384451;19;20033;-64
2022/09/06 03:56:44;;;;;;;11.52;3.53;;;;;;;19.61;98.03;100766.69;7383362;19;20014;-65
2022/09/06 03:59:11;;;;;;;7.75;3.75;;;;;;;19.61;97.48;100772.84;7385418;19;20550;-65
2022/09/06 04:01:38;;;;;;;6.70;3.45;;;;;;;19.59;97.61;100764.25;7383348;19;20038;-65
2022/09/06 04:04:05;;;;;;;11.55;3.63;;;;;;;19.59;97.59;100766.09;7385583;19;20475;-65
2022/09/06 04:06:32;;;;;;;11.32;3.40;;;;;;;19.58;97.02;100772.47;7380445;19;20014;-65
2022/09/06 04:08:59;;;;;;;5.70;3.40;;;;;;;19.53;96.29;100778.44;7385639;19;20026;-65
2022/09/06 04:11:25;;;;;;;9.57;3.42;;;;;;;19.51;96.36;100775.16;7383977;19;20015;-66
2022/09/06 04:13:52;;;;;;;6.80;4.53;;;;;;;19.52;96.63;100770.66;7385930;19;20007;-66
2022/09/06 04:16:19;;;;;;;8.52;3.67;;;;;;;19.50;96.70;100770.88;7382037;19;20014;-65
2022/09/06 04:18:46;;;;;;;5.53;3.30;;;;;;;19.50;96.56;100781.56;7385965;19;20360;-65
2022/09/06 04:21:13;;;;;;;8.00;3.72;;;;;;;19.48;96.58;100786.28;7379623;19;20566;-65
2022/09/06 04:23:55;;;;;;;7.05;3.28;;;;;;;19.46;96.72;100782.16;7382882;19;20117;-65
2022/09/06 04:26:32;;;;;;;9.95;3.28;;;;;;;19.44;96.74;100773.53;7383045;19;20383;-65
2022/09/06 04:28:59;;;;;;;7.05;3.22;;;;;;;19.44;96.98;100765.53;7382632;19;20011;-65
2022/09/06 04:31:31;;;;;;;10.90;4.97;;;;;;;19.42;97.14;100760.38;7380833;19;20014;-65
2022/09/06 04:34:05;;;;;;;6.10;3.47;;;;;;;19.44;97.69;100757.53;7382949;19;20498;-65
2022/09/06 04:36:32;;;;;;;11.20;4.13;;;;;;;19.43;97.11;100750.53;7380580;19;20018;-65
2022/09/06 04:38:58;;;;;;;10.43;3.88;;;;;;;19.40;96.91;100754.44;7383595;19;20368;-65
2022/09/06 04:41:25;;;;;;;9.75;3.53;;;;;;;19.38;96.83;100745.84;7382686;19;20171;-66
2022/09/06 04:43:52;;;;;;;6.95;3.30;;;;;;;19.36;96.67;100744.41;7381835;19;20345;-64
2022/09/06 04:46:29;;;;;;;4.32;3.13;;;;;;;19.35;96.73;100745.47;7382645;19;20014;-65
2022/09/06 04:48:57;;;;;;;10.80;4.68;;;;;;;19.35;96.69;100748.13;7384364;19;20339;-64
2022/09/06 04:51:24;;;;;;;10.98;3.30;;;;;;;19.37;96.73;100754.88;7381094;19;20467;-65
2022/09/06 04:53:51;;;;;;;10.50;3.53;;;;;;;19.36;96.55;100755.06;7380797;19;20020;-65
2022/09/06 04:56:21;;;;;;;6.28;2.95;;;;;;;19.36;95.98;100768.41;7382194;19;20020;-64
2022/09/06 04:58:51;;;;;;;7.03;3.45;;;;;;;19.32;96.35;100768.03;7385176;19;20427;-66
2022/09/06 05:01:26;;;;;;;11.57;3.60;;;;;;;19.31;96.36;100766.38;7378482;19;20554;-66
2022/09/06 05:03:53;;;;;;;11.00;3.45;;;;;;;19.30;96.90;100759.41;7382969;19;20014;-66
2022/09/06 05:06:24;;;;;;;9.93;3.85;;;;;;;19.32;97.05;100753.88;7380290;19;20026;-64
2022/09/06 05:08:57;;;;;;;7.53;3.47;;;;;;;19.30;96.93;100755.94;7382894;19;20047;-64
2022/09/06 05:11:33;;;;;;;8.60;3.42;;;;;;;19.30;96.73;100759.41;7381826;19;20030;-64
2022/09/06 05:14:00;;;;;;;9.70;4.35;;;;;;;19.28;96.52;100748.16;7382583;19;20375;-65
2022/09/06 05:16:26;;;;;;;9.10;3.67;;;;;;;19.26;96.58;100742.19;7380290;19;20038;-65
2022/09/06 05:18:58;;;;;;;8.65;3.15;;;;;;;19.21;96.07;100745.50;7382582;19;20038;-64
2022/09/06 05:21:25;;;;;;;8.70;3.50;;;;;;;19.18;96.19;100750.44;7378938;19;20019;-65
2022/09/06 05:23:52;;;;;;;9.82;3.53;;;;;;;19.17;96.80;100749.63;7380118;19;20017;-64
2022/09/06 05:26:24;;;;;;;7.47;3.35;;;;;;;19.18;97.11;100751.25;7381330;19;20024;-65
2022/09/06 05:28:51;;;;;;;6.50;3.30;;;;;;;19.18;96.79;100755.78;7382893;19;20010;-66
2022/09/06 05:31:29;;;;;;;8.68;3.70;;;;;;;19.15;96.78;100753.50;7378881;19;20022;-66
2022/09/06 05:33:57;;;;;;;6.95;3.58;;;;;;;19.11;96.51;100750.44;7391337;19;20587;-66
2022/09/06 05:36:28;;;;;;;8.82;3.65;;;;;;;19.10;96.67;100754.16;7385262;19;20014;-65
2022/09/06 05:38:56;;;;;;;9.50;3.10;;;;;;;19.11;96.65;100754.97;7388414;19;20021;-64
2022/09/06 05:41:24;;;;;;;9.38;3.60;;;;;;;19.11;97.08;100765.63;7388588;19;20010;-65
2022/09/06 05:43:51;;;;;;;9.00;3.70;;;;;;;19.13;97.29;100767.09;7389290;19;20018;-65
2022/09/06 05:46:18;;;;;;;10.85;4.10;;;;;;;19.14;97.27;100767.91;7387830;19;20018;-65
2022/09/06 05:49:03;;;;;;;11.05;3.45;;;;;;;19.15;97.63;100773.00;7387967;19;20456;-66
2022/09/06 05:51:33;;;;;;;7.78;3.17;;;;;;;19.16;97.63;100784.50;7386469;19;20011;-65
2022/09/06 05:54:00;;;;;;;12.15;3.50;;;;;;;19.17;97.85;100780.81;7388704;19;20018;-66
2022/09/06 05:56:27;;;;;;;10.32;3.30;;;;;;;19.18;98.27;100782.47;7387626;19;20025;-65
2022/09/06 05:59:08;;;;;;;10.93;4.18;;;;;;;19.19;98.04;100787.59;7389548;19;20015;-65
2022/09/06 06:01:53;;;;;;;6.78;3.35;;;;;;;19.21;98.11;100798.84;7386608;19;20019;-65
2022/09/06 06:04:30;;;;;;;9.32;4.00;;;;;;;19.23;97.86;100796.00;7388682;19;20019;-64
2022/09/06 06:07:06;;;;;;;12.00;3.50;;;;;;;19.24;97.62;100792.28;7385520;19;20014;-65
2022/09/06 06:09:33;;;;;;;10.43;4.00;;;;;;;19.26;97.46;100797.41;7388586;19;20010;-65
2022/09/06 06:12:00;;;;;;;9.60;3.35;;;;;;;19.26;97.60;100800.88;7388431;19;20225;-65
2022/09/06 06:14:27;;;;;;;9.02;3.25;;;;;;;19.27;97.17;100799.88;7388658;19;20562;-65
2022/09/06 06:16:58;;;;;;;7.43;3.22;;;;;;;19.32;97.91;100804.56;7385761;19;20363;-65
2022/09/06 06:19:27;;;;;;;11.43;3.17;;;;;;;19.35;97.91;100817.50;7388305;19;20017;-65
2022/09/06 06:21:55;;;;;;;8.50;2.97;;;;;;;19.37;97.58;100807.44;7384362;19;20196;-66
2022/09/06 06:24:34;;;;;;;8.43;3.30;;;;;;;19.39;97.85;100795.53;7387608;19;20372;-64
2022/09/06 06:27:13;;;;;;;7.05;3.33;;;;;;;19.41;97.52;100804.13;7388317;19;20079;-64
2022/09/06 06:29:40;;;;;;;8.02;3.70;;;;;;;19.44;97.53;100805.56;7386208;19;20482;-65
2022/09/06 06:32:07;;;;;;;7.85;3.38;;;;;;;19.46;97.96;100806.19;7388613;19;20014;-65
2022/09/06 06:34:34;;;;;;;9.23;3.80;;;;;;;19.48;98.39;100812.97;7385764;19;20033;-65
2022/09/06 06:37:09;;;;;;;11.88;4.22;;;;;;;19.53;98.92;100807.81;7384071;19;20025;-65
2022/09/06 06:39:45;;;;;;;10.45;3.53;;;;;;;19.55;97.79;100815.63;7386522;19;20018;-65
2022/09/06 06:42:16;;;;;;;9.02;4.00;;;;;;;19.56;98.03;100810.03;7386192;19;20370;-66
2022/09/06 06:44:43;;;;;;;13.68;4.22;;;;;;;19.57;97.69;100801.00;7386773;19;20494;-65
2022/09/06 06:47:10;;;;;;;12.07;3.90;;;;;;;19.57;97.49;100810.88;7386292;19;20018;-65
2022/09/06 06:49:49;;;;;;;9.30;3.95;;;;;;;19.56;97.71;100807.38;7385969;19;20011;-66
2022/09/06 06:52:29;;;;;;;25.65;8.18;;;;;;;19.61;98.16;100804.06;7385063;19;20022;-65
2022/09/06 06:54:56;;;;;;;11.35;5.30;;;;;;;19.69;98.97;100806.50;7387748;19;20014;-66
2022/09/06 06:57:23;;;;;;;8.60;4.40;;;;;;;19.76;98.66;100814.50;7384511;19;20351;-65
2022/09/06 06:59:50;;;;;;;15.93;4.82;;;;;;;19.78;98.06;100810.56;7385121;19;20577;-67
2022/09/06 07:02:18;;;;;;;15.63;4.60;;;;;;;19.78;97.35;100804.41;7386641;19;20410;-66
2022/09/06 07:04:53;;;;;;;12.65;4.75;;;;;;;19.80;97.65;100807.69;7385640;19;20014;-68
2022/09/06 07:07:27;;;;;;;10.35;4.75;;;;;;;19.83;97.66;100804.59;7384290;19;20025;-68
2022/09/06 07:09:55;;;;;;;12.18;4.38;;;;;;;19.87;97.66;100808.47;7385161;19;20014;-65
2022/09/06 07:12:48;;;;;;;13.85;5.28;;;;;;;19.89;97.34;100801.06;7385387;19;20017;-66
2022/09/06 07:15:27;;;;;;;11.38;4.68;;;;;;;19.94;97.72;100809.25;7384630;19;20017;-67
2022/09/06 07:17:55;;;;;;;8.85;4.25;;;;;;;19.95;97.37;100805.56;7384754;19;20404;-65
2022/09/06 07:20:33;;;;;;;10.45;4.70;;;;;;;19.96;97.34;100813.34;7384577;19;20301;-65
2022/09/06 07:23:28;;;;;;;10.32;4.35;;;;;;;19.94;96.95;100818.09;7385589;19;20015;-66
2022/09/06 07:26:20;;;;;;;13.13;4.63;;;;;;;19.95;97.45;100813.56;7383061;19;20036;-65
2022/09/06 07:28:51;;;;;;;12.10;6.40;;;;;;;19.97;97.36;100806.97;7386429;19;20343;-65
2022/09/06 07:31:18;;;;;;;12.57;5.20;;;;;;;20.02;97.86;100806.31;7384302;19;20014;-66
2022/09/06 07:34:16;;;;;;;12.63;5.53;;;;;;;20.04;97.38;100799.72;7384136;19;20018;-66
2022/09/06 07:36:55;;;;;;;18.02;6.38;;;;;;;20.12;98.36;100811.19;7382387;19;20015;-66
2022/09/06 07:39:22;;;;;;;64.32;12.73;;;;;;;20.21;100.00;100823.28;7382658;19;20030;-65
2022/09/06 07:41:49;;;;;;;18.13;9.38;;;;;;;20.25;100.00;100827.97;7385402;19;20022;-65
2022/09/06 07:44:20;;;;;;;14.32;7.18;;;;;;;20.27;99.64;100831.22;7385692;19;20018;-64
2022/09/06 07:46:52;;;;;;;10.98;5.93;;;;;;;20.31;99.78;100831.66;7383790;19;20031;-65
2022/09/06 07:49:20;;;;;;;15.30;7.35;;;;;;;20.35;99.46;100835.53;7385032;19;20003;-64
2022/09/06 07:51:47;;;;;;;20.52;7.53;;;;;;;20.38;98.88;100827.06;7380248;19;20022;-63
2022/09/06 07:54:28;;;;;;;14.60;4.30;;;;;;;20.40;98.17;100830.34;7381557;19;20013;-64
2022/09/06 07:56:59;;;;;;;12.93;4.30;;;;;;;20.44;97.08;100826.22;7383254;19;20018;-64
2022/09/06 07:59:26;;;;;;;13.50;6.35;;;;;;;20.47;96.29;100834.59;7382994;19;20021;-64
2022/09/06 08:01:53;;;;;;;15.00;2.83;;;;;;;20.44;96.12;100819.00;7382118;19;20258;-63
2022/09/06 08:04:22;;;;;;;10.63;3.05;;;;;;;20.48;95.66;100822.06;7385090;19;20376;-65
2022/09/06 08:06:51;;;;;;;10.45;3.03;;;;;;;20.48;95.54;100817.53;7381268;19;20502;-65
2022/09/06 08:09:50;;;;;;;9.55;2.53;;;;;;;20.52;95.29;100812.56;7382155;19;20017;-66
2022/09/06 08:12:32;;;;;;;9.25;1.88;;;;;;;20.56;95.10;100808.44;7381856;19;20010;-65
2022/09/06 08:14:59;;;;;;;7.15;1.48;;;;;;;20.62;95.31;100798.72;7380336;19;20011;-65
2022/09/06 08:17:26;;;;;;;15.02;3.55;;;;;;;20.64;94.90;100804.66;7383646;19;20034;-65
2022/09/06 08:20:08;;;;;;;14.77;3.60;;;;;;;20.70;94.65;100798.44;7382113;19;20506;-66
2022/09/06 08:22:50;;;;;;;12.23;2.40;;;;;;;20.78;94.76;100798.13;7382974;19;20042;-65
2022/09/06 08:25:18;;;;;;;9.63;2.00;;;;;;;20.83;94.47;100798.28;7380198;19;20014;-66
2022/09/06 08:27:58;;;;;;;9.80;1.73;;;;;;;20.89;94.01;100792.06;7384268;19;20561;-65
2022/09/06 08:30:32;;;;;;;7.32;0.95;;;;;;;20.91;93.13;100796.16;7382179;19;20035;-65
2022/09/06 08:33:05;;;;;;;7.90;1.17;;;;;;;20.94;92.98;100797.56;7383877;19;20070;-64
2022/09/06 08:35:34;;;;;;;13.05;7.63;;;;;;;20.94;91.94;100792.22;7380579;19;20021;-65
2022/09/06 08:38:04;;;;;;;11.30;1.35;;;;;;;20.95;91.83;100806.41;7380885;19;20335;-65
2022/09/06 08:40:31;;;;;;;7.85;1.75;;;;;;;20.95;91.29;100823.28;7379790;19;20015;-65
2022/09/06 08:43:15;;;;;;;5.97;1.55;;;;;;;20.91;89.95;100827.47;7381664;19;20006;-66
2022/09/06 08:45:55;;;;;;;11.13;1.15;;;;;;;20.92;89.91;100850.50;7379898;19;20018;-65
2022/09/06 08:48:26;;;;;;;10.70;0.90;;;;;;;20.90;90.20;100852.56;7384286;19;20486;-65
2022/09/06 08:51:12;;;;;;;9.82;0.90;;;;;;;20.89;90.98;100851.75;7379531;19;20014;-67
2022/09/06 08:53:54;;;;;;;10.50;2.08;;;;;;;20.90;91.15;100853.38;7382761;19;20425;-66
2022/09/06 08:56:38;;;;;;;20.75;1.58;;;;;;;20.92;91.46;100840.63;7382351;19;20027;-66
2022/09/06 08:59:11;;;;;;;6.63;1.13;;;;;;;20.90;90.54;100809.75;7382952;19;20010;-64
2022/09/06 09:01:57;;;;;;;6.75;0.90;;;;;;;20.89;90.04;100805.44;7381925;19;20024;-64
2022/09/06 09:04:29;;;;;;;8.70;1.05;;;;;;;20.89;89.82;100818.81;7383820;19;20468;-64
2022/09/06 09:07:05;;;;;;;17.77;6.55;;;;;;;20.90;90.15;100818.63;7385444;19;20080;-65
2022/09/06 09:09:33;;;;;;;7.38;1.02;;;;;;;20.96;90.54;100821.44;7390393;19;20022;-66
2022/09/06 09:12:14;;;;;;;7.68;1.13;;;;;;;21.01;90.11;100826.94;7389382;19;20015;-64
2022/09/06 09:14:55;;;;;;;6.50;0.85;;;;;;;21.06;89.35;100827.94;7386197;19;20022;-66
2022/09/06 09:17:28;;;;;;;12.52;1.70;;;;;;;21.12;89.36;100827.03;7389374;19;20029;-65
2022/09/06 09:19:55;;;;;;;8.10;0.75;;;;;;;21.16;88.32;100822.91;7389431;19;20018;-67
2022/09/06 09:22:26;;;;;;;8.98;0.75;;;;;;;21.26;88.94;100807.16;7387487;19;20014;-64
2022/09/06 09:24:57;;;;;;;10.60;1.00;;;;;;;21.29;88.30;100797.84;7389772;19;20471;-65
2022/09/06 09:27:27;;;;;;;9.88;0.93;;;;;;;21.34;88.19;100811.38;7388819;19;20018;-65
2022/09/06 09:29:54;;;;;;;3.50;0.52;;;;;;;21.38;87.78;100809.91;7388185;19;20029;-64
2022/09/06 09:32:48;;;;;;;7.85;0.77;;;;;;;21.38;86.78;100814.44;7389532;19;20033;-66
2022/09/06 09:35:37;;;;;;;7.13;0.70;;;;;;;21.37;86.84;100810.13;7389479;19;20414;-64
2022/09/06 09:38:11;;;;;;;6.40;0.93;;;;;;;21.38;86.87;100807.22;7387108;19;20014;-65
2022/09/06 09:40:41;;;;;;;13.35;4.25;;;;;;;21.34;85.89;100803.34;7386188;19;20018;-65
2022/09/06 09:43:20;;;;;;;15.57;4.53;;;;;;;21.36;85.93;100795.91;7390801;19;20048;-65
2022/09/06 09:46:26;;;;;;;4.97;1.00;;;;;;;21.38;85.22;100799.19;7387471;19;20015;-65
2022/09/06 09:49:02;;;;;;;6.93;0.75;;;;;;;21.37;84.82;100800.22;7388776;19;20014;-68
2022/09/06 09:51:32;;;;;;;8.23;0.93;;;;;;;21.34;84.01;100814.03;7385664;19;20011;-67
2022/09/06 09:54:05;;;;;;;7.13;0.90;;;;;;;21.32;83.64;100808.13;7388120;19;20343;-67
2022/09/06 09:56:40;;;;;;;7.80;0.70;;;;;;;21.30;82.67;100805.66;7365648;19;20407;-68
2022/09/06 09:59:26;;;;;;;6.93;1.95;;;;;;;21.30;82.90;100818.22;7365591;19;20015;-67
2022/09/06 10:02:27;;;;;;;6.05;0.60;;;;;;;21.30;81.88;100818.22;7385928;19;20011;-66
2022/09/06 10:05:08;;;;;;;5.35;0.60;;;;;;;21.32;80.68;100819.66;7385228;19;20046;-65
2022/09/06 10:07:55;;;;;;;7.43;0.70;;;;;;;21.36;79.46;100814.66;7384052;19;20019;-67
2022/09/06 10:10:46;;;;;;;5.43;0.40;;;;;;;21.40;78.61;100815.00;7383783;19;20042;-66
2022/09/06 10:13:25;;;;;;;6.03;0.55;;;;;;;21.42;78.89;100820.97;7387339;19;20011;-66
2022/09/06 10:15:57;;;;;;;3.85;0.38;;;;;;;21.46;77.79;100820.31;7378024;19;20006;-66
2022/09/06 10:18:31;;;;;;;6.25;0.50;;;;;;;21.54;77.79;100814.63;7382508;19;20038;-67
2022/09/06 10:21:05;;;;;;;7.93;0.50;;;;;;;21.64;77.10;100822.94;7379885;19;20042;-62
2022/09/06 10:23:44;;;;;;;7.00;0.68;;;;;;;21.70;77.27;100813.19;7382273;19;20010;-67
2022/09/06 10:26:59;;;;;;;6.65;0.63;;;;;;;21.72;77.50;100806.59;7383507;19;20060;-66
2022/09/06 10:30:03;;;;;;;5.70;1.00;;;;;;;21.75;78.18;100805.28;7383524;19;20014;-65
2022/09/06 10:33:04;;;;;;;7.13;1.60;;;;;;;21.78;77.76;100807.53;7384222;19;20081;-66
2022/09/06 10:35:37;;;;;;;43.95;24.02;;;;;;;21.83;77.03;100806.84;7382632;19;20114;-65
2022/09/06 10:38:21;;;;;;;4.80;0.90;;;;;;;21.91;77.22;100799.31;7379850;19;20018;-65
2022/09/06 10:40:59;;;;;;;;;;;;;;;21.97;76.59;100801.09;7382941;19;20014;-65
2022/09/06 10:43:35;;;;;;;6.90;0.47;;;;;;;21.98;76.34;100789.34;7384523;19;19942;-65
2022/09/06 10:46:09;;;;;;;7.50;0.70;;;;;;;22.01;76.10;100802.28;7382487;19;20032;-66
2022/09/06 10:48:44;;;;;;;4.22;0.50;;;;;;;22.03;76.93;100799.38;7385860;19;20342;-66
2022/09/06 10:51:30;;;;;;;4.10;0.60;;;;;;;22.03;76.14;100802.88;7380915;19;20018;-64
2022/09/06 10:54:12;;;;;;;3.90;0.70;;;;;;;22.00;74.74;100797.16;7383034;19;20021;-66
2022/09/06 10:57:03;;;;;;;4.90;0.80;;;;;;;21.97;73.82;100805.66;7386946;19;20052;-66
2022/09/06 10:59:40;;;;;;;5.63;0.70;;;;;;;21.93;73.75;100804.44;7386029;19;20382;-66
2022/09/06 11:02:32;;;;;;;5.45;0.73;;;;;;;21.93;73.53;100799.91;7386262;19;20014;-65
2022/09/06 11:05:25;;;;;;;9.82;0.70;;;;;;;21.97;73.48;100793.06;7384917;19;20014;-65
2022/09/06 11:08:30;;;;;;;5.45;0.60;;;;;;;21.98;72.80;100788.53;7385274;19;20022;-68
2022/09/06 11:11:22;;;;;;;8.05;0.50;;;;;;;22.00;74.42;100787.25;7387325;19;20018;-65
2022/09/06 11:13:49;;;;;;;6.45;0.40;;;;;;;22.03;73.42;100780.63;7386689;19;20368;-66
2022/09/06 11:16:30;;;;;;;4.20;0.47;;;;;;;22.05;73.17;100770.47;7385977;19;20349;-66
2022/09/06 11:19:28;;;;;;;7.90;0.77;;;;;;;22.07;73.51;100761.16;7385315;19;20029;-66
2022/09/06 11:22:18;;;;;;;5.93;0.68;;;;;;;;;;7383779;19;20023;-66
2022/09/06 11:25:22;;;;;;;5.82;0.60;;;;;;;22.16;74.36;100767.00;7384849;19;20018;-66
2022/09/06 11:27:56;;;;;;;7.32;0.82;;;;;;;22.17;73.90;100756.06;7386184;19;20014;-66
2022/09/06 11:30:26;;;;;;;5.65;0.60;;;;;;;22.18;73.62;100765.75;7382826;19;20474;-66
2022/09/06 11:33:12;;;;;;;4.35;0.73;;;;;;;22.23;73.15;100766.91;7385476;19;20014;-65
2022/09/06 11:35:40;;;;;;;6.50;0.52;;;;;;;22.23;72.30;100759.69;7384018;19;20032;-67
2022/09/06 11:38:13;;;;;;;10.10;0.60;;;;;;;22.25;72.89;100754.88;7384003;19;20006;-65
2022/09/06 11:40:56;;;;;;;6.07;0.50;;;;;;;22.27;73.61;100752.81;7383166;19;20086;-66
2022/09/06 11:43:41;;;;;;;;;;;;;;;22.31;73.97;100756.66;7387403;19;20014;-65
2022/09/06 11:46:08;;;;;;;4.78;0.55;;;;;;;22.30;73.49;100763.06;7384235;19;19906;-65
2022/09/06 11:48:59;;;;;;;4.57;0.50;;;;;;;22.33;72.47;100765.28;7385451;19;20031;-66
2022/09/06 11:51:45;;;;;;;7.18;0.63;;;;;;;22.36;73.03;100762.13;7383333;19;20031;-66
2022/09/06 11:54:23;;;;;;;5.47;0.40;;;;;;;22.37;72.14;100763.78;7385508;19;20010;-65
2022/09/06 11:57:12;;;;;;;4.38;0.82;;;;;;;22.38;71.95;100761.91;7383085;19;20103;-66
2022/09/06 11:59:46;;;;;;;5.72;0.82;;;;;;;22.42;72.06;100753.16;7385715;19;20350;-66